createdAt,value
2023-02-23T00:01:37.926Z,71.39
2023-02-23T00:04:04.936Z,71.53
2023-02-23T00:06:34.122Z,71.88
2023-02-23T00:09:01.276Z,71.43
2023-02-23T00:11:28.534Z,71.87
2023-02-23T00:13:56.853Z,72.22
2023-02-23T00:16:26.164Z,73.88
2023-02-23T00:18:57.202Z,74.35
2023-02-23T00:21:26.043Z,74.29
2023-02-23T00:23:54.872Z,75.21
2023-02-23T00:26:24.133Z,74.34
2023-02-23T00:28:52.640Z,74.53
2023-02-23T00:31:29.384Z,74.07
2023-02-23T00:33:58.720Z,73.42
2023-02-23T00:36:30.095Z,73.65
2023-02-23T00:39:00.403Z,74.01
2023-02-23T00:41:30.946Z,75.62
2023-02-23T00:43:59.648Z,77.36
2023-02-23T00:46:29.490Z,78.89
2023-02-23T00:48:58.524Z,78.89
2023-02-23T00:51:27.676Z,77.75
2023-02-23T00:53:55.274Z,77.25
2023-02-23T00:56:22.342Z,76.53
2023-02-23T00:58:49.242Z,78.97
2023-02-23T01:01:17.521Z,79.27
2023-02-23T01:03:45.436Z,78.75
2023-02-23T01:06:14.863Z,76.90
2023-02-23T01:08:44.095Z,76.25
2023-02-23T01:11:16.890Z,75.94
2023-02-23T01:13:47.022Z,75.47
2023-02-23T01:16:16.928Z,76.07
2023-02-23T01:18:44.959Z,76.22
2023-02-23T01:21:23.911Z,75.83
2023-02-23T01:23:51.935Z,75.22
2023-02-23T01:26:19.389Z,75.67
2023-02-23T01:28:53.544Z,77.26
2023-02-23T01:31:21.802Z,77.22
2023-02-23T01:33:48.753Z,75.97
2023-02-23T01:36:15.372Z,76.07
2023-02-23T01:38:41.968Z,75.95
2023-02-23T01:41:09.109Z,75.43
2023-02-23T01:43:37.143Z,75.52
2023-02-23T01:46:04.038Z,75.49
2023-02-23T01:48:40.572Z,75.33
2023-02-23T01:51:12.660Z,74.48
2023-02-23T01:53:44.279Z,75.47
2023-02-23T01:56:21.481Z,77.17
2023-02-23T01:58:54.695Z,76.94
2023-02-23T02:01:22.304Z,75.92
2023-02-23T02:03:55.054Z,75.39
2023-02-23T02:06:24.025Z,74.28
2023-02-23T02:08:55.170Z,74.87
2023-02-23T02:11:26.299Z,74.09
2023-02-23T02:14:14.724Z,73.98
2023-02-23T02:17:05.155Z,74.58
2023-02-23T02:20:26.475Z,74.48
2023-02-23T02:23:14.545Z,74.12
2023-02-23T02:25:59.821Z,73.64
2023-02-23T02:28:56.025Z,74.59
2023-02-23T02:31:40.933Z,76.18
2023-02-23T02:34:25.788Z,76.71
2023-02-23T02:37:04.599Z,76.88
2023-02-23T02:40:14.612Z,76.25
2023-02-23T02:43:08.150Z,75.61
2023-02-23T02:45:41.941Z,75.36
2023-02-23T02:48:21.541Z,75.09
2023-02-23T02:51:03.453Z,74.23
2023-02-23T02:53:47.060Z,74.41
2023-02-23T02:56:19.854Z,75.75
2023-02-23T02:58:50.094Z,75.29
2023-02-23T03:01:36.970Z,75.15
2023-02-23T03:04:42.504Z,74.78
2023-02-23T03:07:44.690Z,77.14
2023-02-23T03:10:38.640Z,76.71
2023-02-23T03:13:41.689Z,76.44
2023-02-23T03:16:35.552Z,76.52
2023-02-23T03:19:34.541Z,76.50
2023-02-23T03:22:33.445Z,77.49
2023-02-23T03:25:37.449Z,76.82
2023-02-23T03:28:36.808Z,75.70
2023-02-23T03:31:50.220Z,77.08
2023-02-23T03:34:51.993Z,76.84
2023-02-23T03:37:53.145Z,75.76
2023-02-23T03:40:42.263Z,75.09
2023-02-23T03:43:34.521Z,75.38
2023-02-23T03:46:22.848Z,76.61
2023-02-23T03:49:12.336Z,78.99
2023-02-23T03:52:00.169Z,78.65
2023-02-23T03:54:59.373Z,77.55
2023-02-23T03:57:48.457Z,77.03
2023-02-23T04:00:40.148Z,75.67
2023-02-23T04:03:28.652Z,75.50
2023-02-23T04:06:16.309Z,76.59
2023-02-23T04:09:02.190Z,77.71
2023-02-23T04:11:58.174Z,76.20
2023-02-23T04:14:33.336Z,76.64
2023-02-23T04:17:00.306Z,77.98
2023-02-23T04:19:28.444Z,77.83
2023-02-23T04:21:55.187Z,78.96
2023-02-23T04:24:21.795Z,78.80
2023-02-23T04:26:48.452Z,77.86
2023-02-23T04:29:15.235Z,78.84
2023-02-23T04:31:41.955Z,79.31
2023-02-23T04:34:08.649Z,78.52
2023-02-23T04:36:36.315Z,78.82
2023-02-23T04:39:03.532Z,79.33
2023-02-23T04:41:30.114Z,81.73
2023-02-23T04:43:56.846Z,82.36
2023-02-23T04:46:23.824Z,82.06
2023-02-23T04:48:50.439Z,79.97
2023-02-23T04:51:17.361Z,81.09
2023-02-23T04:53:44.139Z,81.05
2023-02-23T04:56:12.020Z,80.50
2023-02-23T04:58:38.700Z,80.05
2023-02-23T05:01:07.100Z,80.27
2023-02-23T05:03:33.746Z,79.13
2023-02-23T05:06:00.413Z,78.73
2023-02-23T05:08:26.969Z,77.68
2023-02-23T05:10:53.613Z,79.26
2023-02-23T05:13:20.611Z,79.34
2023-02-23T05:15:47.304Z,78.57
2023-02-23T05:18:14.000Z,77.67
2023-02-23T05:20:44.860Z,77.24
2023-02-23T05:23:12.082Z,76.54
2023-02-23T05:25:39.570Z,76.03
2023-02-23T05:28:06.247Z,75.62
2023-02-23T05:30:33.304Z,74.96
2023-02-23T05:33:00.239Z,74.37
2023-02-23T05:35:26.961Z,74.49
2023-02-23T05:37:53.677Z,74.70
2023-02-23T05:40:20.290Z,75.56
2023-02-23T05:42:46.944Z,75.53
2023-02-23T05:45:14.570Z,74.59
2023-02-23T05:47:41.293Z,74.56
2023-02-23T05:50:11.413Z,73.83
2023-02-23T05:52:41.975Z,74.59
2023-02-23T05:55:11.758Z,74.31
2023-02-23T05:57:39.487Z,74.78
2023-02-23T06:00:07.557Z,73.46
2023-02-23T06:02:36.426Z,73.32
2023-02-23T06:05:03.371Z,73.30
2023-02-23T06:07:30.079Z,73.75
2023-02-23T06:09:56.631Z,71.67
2023-02-23T06:12:23.837Z,73.80
2023-02-23T06:14:50.886Z,72.97
2023-02-23T06:17:17.797Z,73.44
2023-02-23T06:19:44.370Z,73.39
2023-02-23T06:22:11.465Z,72.25
2023-02-23T06:24:38.027Z,72.08
2023-02-23T06:27:05.309Z,72.24
2023-02-23T06:29:31.951Z,73.02
2023-02-23T06:32:00.817Z,73.21
2023-02-23T06:34:27.846Z,74.66
2023-02-23T06:36:54.746Z,77.16
2023-02-23T06:39:21.378Z,75.94
2023-02-23T06:41:48.350Z,72.93
2023-02-23T06:44:14.901Z,72.01
2023-02-23T06:46:41.637Z,72.35
2023-02-23T06:49:08.231Z,71.23
2023-02-23T06:51:34.780Z,71.17
2023-02-23T06:54:01.318Z,71.09
2023-02-23T06:56:27.961Z,70.38
2023-02-23T06:58:54.581Z,70.48
2023-02-23T07:01:21.367Z,71.15
2023-02-23T07:03:48.028Z,70.20
2023-02-23T07:06:14.676Z,69.73
2023-02-23T07:08:41.284Z,71.46
2023-02-23T07:11:10.536Z,70.94
2023-02-23T07:13:37.315Z,71.57
2023-02-23T07:16:04.121Z,71.27
2023-02-23T07:18:30.824Z,70.05
2023-02-23T07:20:57.633Z,70.10
2023-02-23T07:23:24.448Z,67.16
2023-02-23T07:25:56.551Z,68.33
2023-02-23T07:28:24.202Z,72.36
2023-02-23T07:30:50.815Z,75.20
2023-02-23T07:33:17.414Z,74.58
2023-02-23T07:35:45.251Z,72.79
2023-02-23T07:38:12.683Z,68.50
2023-02-23T07:40:39.729Z,69.48
2023-02-23T07:43:06.807Z,74.91
2023-02-23T07:45:33.525Z,74.18
2023-02-23T07:48:00.177Z,73.47
2023-02-23T07:50:26.775Z,76.49
2023-02-23T07:52:53.702Z,76.78
2023-02-23T07:55:20.946Z,77.21
2023-02-23T07:57:47.725Z,77.34
2023-02-23T08:00:15.191Z,78.26
2023-02-23T08:02:42.724Z,76.59
2023-02-23T08:05:09.593Z,76.41
2023-02-23T08:07:36.204Z,75.53
2023-02-23T08:10:02.966Z,75.40
2023-02-23T08:12:29.830Z,74.41
2023-02-23T08:14:56.495Z,74.26
2023-02-23T08:17:23.123Z,74.30
2023-02-23T08:19:50.100Z,73.10
2023-02-23T08:22:16.758Z,72.63
2023-02-23T08:24:43.343Z,71.34
2023-02-23T08:27:10.216Z,70.30
2023-02-23T08:29:36.783Z,70.44
2023-02-23T08:32:04.362Z,69.56
2023-02-23T08:34:31.431Z,71.20
2023-02-23T08:36:58.068Z,70.93
2023-02-23T08:39:24.877Z,70.83
2023-02-23T08:41:55.501Z,70.30
2023-02-23T08:44:22.150Z,70.29
2023-02-23T08:46:48.753Z,71.16
2023-02-23T08:49:15.452Z,72.25
2023-02-23T08:51:43.007Z,71.55
2023-02-23T08:54:14.311Z,71.96
2023-02-23T08:56:42.094Z,70.65
2023-02-23T08:59:09.669Z,69.79
2023-02-23T09:01:37.172Z,68.99
2023-02-23T09:04:05.405Z,69.88
2023-02-23T09:06:32.951Z,69.98
2023-02-23T09:08:59.615Z,70.65
2023-02-23T09:11:26.267Z,71.31
2023-02-23T09:13:52.907Z,71.41
2023-02-23T09:16:19.512Z,71.13
2023-02-23T09:18:46.396Z,71.29
2023-02-23T09:21:21.226Z,72.44
2023-02-23T09:23:51.158Z,71.80
2023-02-23T09:26:19.492Z,71.34
2023-02-23T09:28:46.901Z,72.34
2023-02-23T09:31:17.146Z,72.28
2023-02-23T09:33:43.962Z,71.96
2023-02-23T09:36:16.312Z,71.46
2023-02-23T09:38:49.465Z,71.02
2023-02-23T09:41:25.176Z,71.06
2023-02-23T09:44:13.954Z,71.50
2023-02-23T09:47:05.300Z,71.14
2023-02-23T09:49:37.953Z,70.73
2023-02-23T09:52:09.701Z,70.27
2023-02-23T09:54:36.826Z,70.70
2023-02-23T09:57:10.764Z,70.64
2023-02-23T09:59:39.482Z,72.09
2023-02-23T10:02:37.699Z,70.61
2023-02-23T10:05:09.830Z,71.05
2023-02-23T10:07:56.169Z,69.97
2023-02-23T10:10:36.180Z,69.38
2023-02-23T10:13:02.813Z,68.75
2023-02-23T10:16:04.762Z,66.65
2023-02-23T10:18:47.021Z,69.08
2023-02-23T10:21:44.842Z,69.26
2023-02-23T10:24:21.127Z,69.80
2023-02-23T10:26:51.954Z,68.03
2023-02-23T10:29:27.425Z,67.85
2023-02-23T10:32:02.454Z,68.95
2023-02-23T10:34:30.744Z,67.68
2023-02-23T10:37:02.729Z,66.88
2023-02-23T10:39:31.196Z,67.94
2023-02-23T10:42:00.398Z,68.15
2023-02-23T10:44:28.961Z,67.88
2023-02-23T10:47:01.620Z,67.82
2023-02-23T10:49:39.256Z,67.23
2023-02-23T10:52:07.446Z,68.90
2023-02-23T10:54:44.012Z,67.05
2023-02-23T10:57:18.725Z,68.57
2023-02-23T11:00:02.220Z,68.93
2023-02-23T11:02:33.839Z,67.76
2023-02-23T11:05:01.459Z,68.61
2023-02-23T11:07:31.490Z,68.03
2023-02-23T11:10:29.136Z,67.11
2023-02-23T11:12:55.857Z,67.48
2023-02-23T11:15:35.293Z,67.58
2023-02-23T11:18:07.064Z,67.23
2023-02-23T11:20:36.972Z,63.98
2023-02-23T11:23:14.663Z,64.14
2023-02-23T11:25:45.121Z,66.46
2023-02-23T11:28:22.514Z,64.44
2023-02-23T11:30:49.562Z,65.28
2023-02-23T11:33:29.613Z,64.47
2023-02-23T11:36:12.444Z,64.52
2023-02-23T11:38:39.128Z,64.93
2023-02-23T11:41:35.044Z,65.85
2023-02-23T11:44:06.089Z,65.91
2023-02-23T11:46:38.228Z,65.31
2023-02-23T11:49:14.869Z,66.09
2023-02-23T11:51:48.374Z,65.63
2023-02-23T11:54:27.747Z,64.97
2023-02-23T11:56:58.031Z,64.21
2023-02-23T11:59:32.120Z,62.40
2023-02-23T12:02:19.287Z,65.19
2023-02-23T12:04:49.928Z,63.02
2023-02-23T12:07:38.785Z,63.37
2023-02-23T12:10:13.460Z,63.79
2023-02-23T12:12:48.814Z,63.69
2023-02-23T12:15:24.902Z,63.07
2023-02-23T12:17:59.103Z,62.22
2023-02-23T12:20:30.918Z,62.73
2023-02-23T12:23:12.468Z,63.31
2023-02-23T12:25:46.216Z,62.65
2023-02-23T12:28:22.320Z,62.64
2023-02-23T12:30:54.953Z,62.82
2023-02-23T12:33:34.322Z,61.64
2023-02-23T12:36:16.314Z,62.81
2023-02-23T12:39:08.061Z,62.41
2023-02-23T12:41:51.708Z,63.11
2023-02-23T12:44:32.210Z,63.19
2023-02-23T12:47:07.337Z,62.94
2023-02-23T12:49:42.882Z,63.61
2023-02-23T12:52:25.744Z,63.62
2023-02-23T12:54:52.536Z,63.24
2023-02-23T12:57:31.834Z,61.95
2023-02-23T13:00:24.780Z,63.83
2023-02-23T13:03:13.903Z,61.47
2023-02-23T13:06:19.034Z,62.90
2023-02-23T13:09:07.834Z,62.80
2023-02-23T13:12:00.483Z,64.22
2023-02-23T13:14:48.400Z,62.98
2023-02-23T13:17:37.188Z,61.92
2023-02-23T13:20:18.729Z,62.80
2023-02-23T13:22:59.735Z,61.28
2023-02-23T13:26:03.885Z,63.25
2023-02-23T13:28:48.883Z,61.22
2023-02-23T13:31:37.582Z,61.36
2023-02-23T13:34:09.380Z,62.50
2023-02-23T13:36:37.996Z,63.59
2023-02-23T13:39:54.984Z,59.75
2023-02-23T13:42:43.669Z,61.21
2023-02-23T13:45:28.105Z,62.56
2023-02-23T13:48:15.192Z,63.13
2023-02-23T13:50:51.157Z,62.04
2023-02-23T13:53:39.592Z,63.37
2023-02-23T13:56:10.126Z,58.98
2023-02-23T13:58:37.405Z,62.37
2023-02-23T14:01:36.253Z,61.50
2023-02-23T14:04:12.959Z,61.35
2023-02-23T14:06:50.707Z,60.20
2023-02-23T14:09:23.739Z,62.02
2023-02-23T14:12:05.724Z,62.29
2023-02-23T14:14:32.888Z,62.56
2023-02-23T14:17:14.875Z,62.90
2023-02-23T14:19:42.997Z,61.91
2023-02-23T14:22:14.457Z,60.20
2023-02-23T14:24:41.352Z,60.86
2023-02-23T14:27:10.738Z,60.31
2023-02-23T14:29:45.521Z,60.82
2023-02-23T14:32:14.949Z,59.54
2023-02-23T14:34:59.357Z,59.15
2023-02-23T14:37:37.398Z,60.70
2023-02-23T14:40:13.671Z,59.25
2023-02-23T14:42:41.574Z,60.58
2023-02-23T14:45:33.116Z,59.78
2023-02-23T14:48:06.715Z,59.98
2023-02-23T14:50:36.257Z,61.70
2023-02-23T14:53:04.864Z,63.93
2023-02-23T14:55:36.747Z,62.30
2023-02-23T14:58:19.484Z,62.54
2023-02-23T15:00:46.182Z,62.91
2023-02-23T15:03:13.631Z,63.92
2023-02-23T15:05:45.811Z,64.61
2023-02-23T15:08:17.204Z,63.16
2023-02-23T15:10:46.280Z,64.16
2023-02-23T15:16:06.229Z,64.25
2023-02-23T15:18:38.297Z,64.21
2023-02-23T15:21:09.435Z,66.44
2023-02-23T15:23:40.211Z,65.67
2023-02-23T15:26:24.122Z,65.77
2023-02-23T15:28:51.305Z,65.54
2023-02-23T15:31:19.362Z,66.25
2023-02-23T15:33:48.636Z,66.53
2023-02-23T15:36:34.527Z,66.01
2023-02-23T15:39:05.289Z,66.00
2023-02-23T15:41:36.780Z,65.60
2023-02-23T15:44:07.921Z,65.81
2023-02-23T15:46:35.642Z,65.72
2023-02-23T15:49:03.586Z,67.25
2023-02-23T15:51:48.785Z,67.11
2023-02-23T15:54:27.138Z,66.72
2023-02-23T15:57:02.149Z,66.34
2023-02-23T15:59:34.655Z,65.67
2023-02-23T16:02:03.050Z,66.73
2023-02-23T16:04:33.883Z,66.22
2023-02-23T16:07:17.253Z,66.38
2023-02-23T16:10:19.257Z,67.10
2023-02-23T16:12:50.666Z,67.22
2023-02-23T16:15:29.492Z,66.49
2023-02-23T16:18:00.802Z,67.12
2023-02-23T16:20:57.670Z,67.05
2023-02-23T16:23:34.367Z,66.84
2023-02-23T16:26:12.259Z,67.21
2023-02-23T16:28:45.400Z,68.30
2023-02-23T16:31:14.158Z,68.12
2023-02-23T16:33:44.833Z,69.28
2023-02-23T16:36:11.589Z,71.53
2023-02-23T16:38:41.100Z,72.71
2023-02-23T16:41:18.119Z,72.88
2023-02-23T16:43:47.901Z,72.70
2023-02-23T16:46:15.425Z,72.65
2023-02-23T16:48:42.090Z,72.13
2023-02-23T16:51:14.674Z,72.41
2023-02-23T16:53:42.241Z,72.24
2023-02-23T16:56:13.409Z,71.31
2023-02-23T16:58:42.929Z,70.28
2023-02-23T17:01:14.154Z,72.50
2023-02-23T17:03:51.573Z,71.30
2023-02-23T17:06:20.137Z,72.96
2023-02-23T17:08:57.116Z,72.36
2023-02-23T17:11:24.736Z,73.10
2023-02-23T17:13:51.306Z,72.77
2023-02-23T17:16:18.187Z,72.22
2023-02-23T17:18:45.050Z,71.82
2023-02-23T17:21:14.315Z,71.65
2023-02-23T17:23:51.183Z,71.72
2023-02-23T17:26:20.448Z,71.54
2023-02-23T17:28:47.344Z,72.07
2023-02-23T17:31:16.260Z,72.23
2023-02-23T17:33:43.533Z,70.95
2023-02-23T17:36:13.451Z,70.15
2023-02-23T17:38:44.284Z,70.30
2023-02-23T17:41:17.943Z,70.21
2023-02-23T17:43:44.967Z,70.09
2023-02-23T17:46:12.880Z,69.01
2023-02-23T17:48:40.792Z,70.19
2023-02-23T17:51:12.658Z,69.91
2023-02-23T17:53:40.171Z,69.34
2023-02-23T17:56:08.647Z,69.32
2023-02-23T17:58:36.647Z,69.35
2023-02-23T18:01:05.452Z,68.88
2023-02-23T18:03:34.073Z,69.28
2023-02-23T18:06:08.830Z,70.09
2023-02-23T18:08:36.467Z,68.74
2023-02-23T18:11:03.889Z,68.93
2023-02-23T18:13:33.281Z,69.06
2023-02-23T18:16:03.974Z,67.91
2023-02-23T18:18:30.802Z,68.84
2023-02-23T18:20:59.651Z,67.96
2023-02-23T18:23:35.920Z,68.54
2023-02-23T18:26:11.846Z,68.27
2023-02-23T18:28:41.098Z,69.98
2023-02-23T18:31:07.886Z,71.10
2023-02-23T18:33:35.861Z,72.96
2023-02-23T18:36:03.934Z,73.58
2023-02-23T18:38:30.598Z,72.11
2023-02-23T18:40:58.395Z,71.70
2023-02-23T18:43:25.027Z,70.00
2023-02-23T18:45:51.696Z,69.04
2023-02-23T18:48:18.348Z,69.21
2023-02-23T18:50:44.997Z,69.76
2023-02-23T18:53:11.635Z,69.91
2023-02-23T18:55:38.783Z,69.57
2023-02-23T18:58:05.871Z,70.54
2023-02-23T19:00:42.586Z,70.78
2023-02-23T19:03:10.499Z,69.31
2023-02-23T19:05:37.790Z,69.00
2023-02-23T19:08:08.195Z,69.64
2023-02-23T19:10:36.482Z,69.82
2023-02-23T19:13:03.176Z,69.96
2023-02-23T19:15:31.132Z,71.13
2023-02-23T19:17:57.754Z,70.36
2023-02-23T19:20:24.474Z,70.02
2023-02-23T19:22:51.021Z,69.41
2023-02-23T19:25:17.741Z,70.28
2023-02-23T19:27:44.441Z,67.41
2023-02-23T19:30:11.965Z,67.35
2023-02-23T19:32:39.919Z,68.06
2023-02-23T19:35:09.366Z,68.78
2023-02-23T19:37:38.605Z,68.67
2023-02-23T19:40:07.000Z,68.55
2023-02-23T19:42:35.048Z,68.55
2023-02-23T19:45:01.754Z,67.42
2023-02-23T19:47:28.489Z,67.67
2023-02-23T19:49:55.187Z,68.25
2023-02-23T19:52:23.208Z,68.03
2023-02-23T19:54:49.923Z,66.37
2023-02-23T19:57:16.588Z,66.78
2023-02-23T19:59:43.330Z,67.17
2023-02-23T20:02:11.054Z,66.35
2023-02-23T20:04:37.757Z,66.58
2023-02-23T20:07:04.491Z,66.91
2023-02-23T20:09:31.140Z,67.96
2023-02-23T20:11:57.798Z,70.47
2023-02-23T20:14:24.945Z,72.73
2023-02-23T20:16:51.713Z,73.09
2023-02-23T20:19:19.695Z,70.05
2023-02-23T20:21:46.388Z,70.35
2023-02-23T20:24:13.376Z,70.47
2023-02-23T20:26:41.263Z,69.51
2023-02-23T20:29:14.821Z,70.56
2023-02-23T20:31:52.229Z,72.63
2023-02-23T20:34:24.430Z,72.83
2023-02-23T20:36:52.224Z,70.69
2023-02-23T20:39:19.117Z,69.29
2023-02-23T20:41:47.731Z,68.87
2023-02-23T20:44:15.959Z,68.57
2023-02-23T20:46:44.621Z,69.68
2023-02-23T20:49:12.848Z,71.38
2023-02-23T20:51:41.618Z,70.80
2023-02-23T20:54:10.683Z,70.26
2023-02-23T20:56:38.864Z,68.41
2023-02-23T20:59:06.787Z,69.99
2023-02-23T21:01:33.733Z,70.19
2023-02-23T21:04:01.033Z,69.93
2023-02-23T21:06:29.633Z,69.29
2023-02-23T21:09:02.615Z,69.97
2023-02-23T21:11:32.074Z,71.59
2023-02-23T21:13:59.617Z,70.39
2023-02-23T21:16:27.776Z,69.84
2023-02-23T21:19:04.024Z,69.04
2023-02-23T21:21:37.605Z,68.34
2023-02-23T21:24:04.405Z,68.56
2023-02-23T21:26:31.613Z,68.84
2023-02-23T21:28:58.427Z,68.26
2023-02-23T21:31:25.531Z,69.86
2023-02-23T21:33:52.268Z,69.92
2023-02-23T21:36:18.947Z,69.53
2023-02-23T21:38:45.963Z,69.49
2023-02-23T21:41:14.118Z,71.04
2023-02-23T21:43:43.077Z,72.75
2023-02-23T21:46:15.367Z,72.45
2023-02-23T21:48:43.441Z,72.84
2023-02-23T21:51:12.851Z,72.97
2023-02-23T21:53:40.179Z,74.63
2023-02-23T21:56:11.773Z,73.67
2023-02-23T21:58:40.029Z,73.37
2023-02-23T22:01:14.800Z,72.79
2023-02-23T22:03:44.930Z,73.17
2023-02-23T22:06:23.788Z,72.43
2023-02-23T22:08:50.601Z,72.12
2023-02-23T22:11:26.860Z,72.13
2023-02-23T22:13:59.941Z,71.63
2023-02-23T22:16:32.040Z,72.06
2023-02-23T22:19:03.479Z,73.13
2023-02-23T22:21:37.330Z,72.37
2023-02-23T22:24:05.543Z,72.21
2023-02-23T22:26:34.510Z,71.54
2023-02-23T22:29:01.472Z,71.59
2023-02-23T22:31:28.810Z,70.71
2023-02-23T22:33:55.662Z,70.90
2023-02-23T22:36:22.872Z,71.67
2023-02-23T22:38:49.715Z,71.52
2023-02-23T22:41:16.557Z,71.11
2023-02-23T22:43:45.864Z,71.05
2023-02-23T22:46:14.490Z,70.86
2023-02-23T22:48:44.987Z,70.33
2023-02-23T22:51:14.057Z,70.78
2023-02-23T22:53:40.829Z,70.77
2023-02-23T22:56:13.918Z,71.25
2023-02-23T22:58:43.909Z,71.50
2023-02-23T23:01:11.835Z,71.73
2023-02-23T23:03:45.775Z,71.02
2023-02-23T23:06:21.878Z,70.99
2023-02-23T23:08:51.751Z,71.01
2023-02-23T23:11:21.421Z,70.95
2023-02-23T23:13:51.317Z,70.78
2023-02-23T23:16:31.450Z,71.29
2023-02-23T23:19:07.863Z,71.42
2023-02-23T23:21:35.699Z,71.83
2023-02-23T23:24:05.889Z,71.81
2023-02-23T23:26:35.505Z,71.08
2023-02-23T23:29:07.419Z,71.69
2023-02-23T23:31:35.106Z,71.23
2023-02-23T23:34:09.146Z,71.13
2023-02-23T23:36:43.021Z,71.28
2023-02-23T23:39:12.073Z,71.51
2023-02-23T23:41:39.533Z,71.63
2023-02-23T23:44:06.719Z,71.53
2023-02-23T23:46:37.464Z,71.88
2023-02-23T23:49:08.056Z,72.41
2023-02-23T23:51:44.825Z,72.12
2023-02-23T23:54:14.780Z,71.70
2023-02-23T23:56:43.539Z,72.02
2023-02-23T23:59:16.418Z,72.19
